Flight Track Log - Related Links

Times and Time Zones

All times are in EDT time to prevent confusion due to time zone crossing. See the XOJ552 flight status page for this flight to view local times or setup timezone preferences in your user account.

Time Position Orientation Groundspeed Altitude Reporting Facility
EDT Latitude Longitude Course Direction KTS MPH feet Rate Location/Type
Sat 12:06:41 PM 17.9167 -63.0667 281° West 120 138 7,800  Level San Juan Center
Sat 12:07:41 PM 17.8833 -63.1167 235° Southwest 230 265 11,000 2,650 Climbing San Juan Center
Sat 12:08:41 PM 17.9167 -63.2000 293° West 290 334 13,100 1,983 Climbing San Juan Center
Sat 12:09:42 PM 17.9500 -63.2833 293° West 340 391 15,000 1,736 Climbing San Juan Center
Sat 12:10:42 PM 18.0000 -63.3833 298° West 380 437 16,600 2,100 Climbing San Juan Center
Sat 12:11:42 PM 18.0333 -63.4833 289° West 380 437 19,200 2,529 Climbing San Juan Center
Sat 12:12:00 PM 18.1531 -63.8115 281° West  Level FlightAware Approximate
Sat 12:12:43 PM 18.0833 -63.6000 294° West 380 437 21,700  Level San Juan Center
Sat 12:13:43 PM 18.1167 -63.7000 289° West 390 449 23,900 1,950 Climbing San Juan Center
Sat 12:14:43 PM 18.1667 -63.8000 298° West 390 449 25,600 1,785 Climbing San Juan Center
Sat 12:15:44 PM 18.2000 -63.9167 287° West 410 472 27,500 1,835 Climbing San Juan Center
Sat 12:16:44 PM 18.2500 -64.0333 294° West 410 472 29,300 1,600 Climbing San Juan Center
Sat 12:17:44 PM 18.2833 -64.1500 287° West 420 483 30,700 1,438 Climbing San Juan Center
Sat 12:18:45 PM 18.3333 -64.2667 294° West 430 495 32,200 1,537 Climbing San Juan Center
Sat 12:19:45 PM 18.3833 -64.3833 294° West 430 495 33,800 1,600 Climbing San Juan Center
Sat 12:20:45 PM 18.4333 -64.5000 294° West 430 495 35,400 1,488 Climbing San Juan Center
Sat 12:21:46 PM 18.4667 -64.6000 289° West 420 483 36,800 1,339 Climbing San Juan Center
Sat 12:22:46 PM 18.5167 -64.7167 294° West 420 483 38,100 1,300 Climbing San Juan Center
Sat 12:23:46 PM 18.5500 -64.8333 287° West 410 472 39,400 1,100 Climbing San Juan Center
Sat 12:24:46 PM 18.6000 -64.9500 294° West 410 472 40,300 793 Climbing San Juan Center
Sat 12:25:47 PM 18.6500 -65.0500 298° West 410 472 41,000 545 Climbing San Juan Center
Sat 12:26:47 PM 18.6833 -65.1667 287° West 410 472 41,400 500 Climbing San Juan Center
Sat 12:27:47 PM 18.7333 -65.2833 294° West 410 472 42,000 450 Climbing San Juan Center
Sat 12:28:47 PM 18.7667 -65.4000 287° West 400 460 42,300 298 Climbing San Juan Center
Sat 12:29:48 PM 18.8000 -65.5000 289° West 410 472 42,600 347 Climbing San Juan Center
Sat 12:30:48 PM 18.8500 -65.6167 294° West 420 483 43,000 200 Climbing San Juan Center
Sat 12:31:48 PM 18.9000 -65.7333 294° West 410 472 43,000  Level San Juan Center
Sat 12:32:49 PM 18.9333 -65.8500 287° West 420 483 43,000  Level San Juan Center
Sat 12:33:49 PM 18.9833 -65.9667 294° West 420 483 43,000  Level San Juan Center
Sat 12:34:49 PM 19.0167 -66.0833 287° West 420 483 43,000  Level San Juan Center
Sat 12:35:50 PM 19.0667 -66.2000 294° West 430 495 43,000  Level San Juan Center
Sat 12:36:50 PM 19.1000 -66.3167 287° West 430 495 43,000  Level San Juan Center
Sat 12:37:50 PM 19.1500 -66.4333 294° West 430 495 43,000  Level San Juan Center
Sat 12:38:51 PM 19.2000 -66.5500 294° West 430 495 43,000  Level San Juan Center
Sat 12:39:51 PM 19.2500 -66.6667 294° West 430 495 43,000  Level San Juan Center
Sat 12:40:51 PM 19.2833 -66.7833 287° West 420 483 43,000  Level San Juan Center
Sat 12:41:52 PM 19.3333 -66.9000 294° West 420 483 43,000  Level San Juan Center
Sat 12:42:52 PM 19.3667 -67.0167 287° West 420 483 43,000  Level San Juan Center
Sat 12:43:52 PM 19.4167 -67.1333 294° West 420 483 43,000  Level San Juan Center
Sat 12:44:53 PM 19.4500 -67.2500 287° West 420 483 43,000  Level San Juan Center
Sat 12:45:53 PM 19.5000 -67.3667 294° West 420 483 43,000  Level San Juan Center
Sat 12:47:54 PM 19.5833 -67.6000 291° West 430 495 43,000  Level San Juan Center
Sat 12:48:54 PM 19.6333 -67.7167 294° West 420 483 43,000  Level San Juan Center
Sat 12:50:54 PM 19.6833 -67.9333 284° West 420 483 43,000  Level San Juan Center
Sat 12:51:55 PM 19.7333 -68.0500 294° West 420 483 43,000  Level San Juan Center
Sat 12:52:55 PM 19.7667 -68.1667 287° West 420 483 43,000  Level San Juan Center
Sat 12:54:28 PM 19.8514 -68.3614 295° West 432 497 43,000  Level Miami Center
Sat 12:55:28 PM 19.8931 -68.4800 291° West 432 497 43,000  Level Miami Center
Sat 12:56:28 PM 19.9394 -68.6092 291° West 432 497 43,000  Level Miami Center
Sat 12:57:28 PM 19.9764 -68.7147 290° West 432 497 43,000  Level Miami Center
Sat 12:58:28 PM 20.0419 -68.8189 304° West 432 497 43,000  Level Miami Center
Sat 12:59:28 PM 20.1100 -68.9250 304° West 432 497 43,000  Level Miami Center
Sat 01:00:28 PM 20.1775 -69.0269 305° West 432 497 43,000  Level Miami Center
Sat 01:01:28 PM 20.2450 -69.1311 305° West 424 488 43,000  Level Miami Center
Sat 01:02:28 PM 20.3106 -69.2336 304° West 424 488 43,000  Level Miami Center
Sat 01:03:28 PM 20.3781 -69.3381 305° West 424 488 43,000  Level Miami Center
Sat 01:04:28 PM 20.4436 -69.4428 304° West 424 488 43,000  Level Miami Center
Sat 01:05:28 PM 20.5108 -69.5472 305° West 424 488 43,000  Level Miami Center
Sat 01:06:28 PM 20.5783 -69.6544 304° West 424 488 43,000  Level Miami Center
Sat 01:07:28 PM 20.6458 -69.7592 305° West 424 488 43,000  Level Miami Center
Sat 01:08:28 PM 20.7150 -69.8642 305° West 424 488 43,000  Level Miami Center
Sat 01:09:28 PM 20.7803 -69.9714 303° West 424 488 43,000  Level Miami Center
Sat 01:10:28 PM 20.8475 -70.0767 304° West 424 488 43,000  Level Miami Center
Sat 01:11:28 PM 20.9147 -70.1842 304° West 429 494 43,000  Level Miami Center
Sat 01:12:28 PM 20.9817 -70.2897 304° West 429 494 43,000  Level Miami Center
Sat 01:13:28 PM 21.0508 -70.3975 305° West 429 494 43,000  Level Miami Center
Sat 01:14:28 PM 21.1178 -70.5031 304° West 429 494 43,000  Level Miami Center
Sat 01:15:28 PM 21.1872 -70.6153 304° West 434 499 43,000  Level Miami Center
Sat 01:16:28 PM 21.2539 -70.7214 304° West 440 506 43,000  Level Miami Center
Sat 01:17:28 PM 21.3228 -70.8317 304° West 440 506 43,000  Level Miami Center
Sat 01:18:28 PM 21.3917 -70.9400 304° West 440 506 43,000  Level Miami Center
Sat 01:19:28 PM 21.4628 -71.0481 305° West 450 518 43,000  Level Miami Center
Sat 01:20:28 PM 21.5342 -71.1767 301° West 450 518 43,000  Level Miami Center
Sat 01:21:28 PM 21.6072 -71.2872 305° West 449 517 43,000  Level Miami Center
Sat 01:22:28 PM 21.6758 -71.3981 304° West 442 509 43,000  Level Miami Center
Sat 01:23:28 PM 21.7422 -71.5072 303° West 442 509 43,000  Level Miami Center
Sat 01:24:28 PM 21.8108 -71.6183 304° West 442 509 43,000  Level Miami Center
Sat 01:25:28 PM 21.8792 -71.7275 304° West 447 514 43,000  Level Miami Center
Sat 01:26:28 PM 21.9456 -71.8389 303° West 447 514 43,000  Level Miami Center
Sat 01:27:28 PM 22.0158 -71.9481 305° West 447 514 43,000  Level Miami Center
Sat 01:28:28 PM 22.0800 -72.0600 302° West 447 514 43,000  Level Miami Center
Sat 01:29:28 PM 22.1436 -72.1583 305° West 447 514 43,000  Level Miami Center
Sat 01:30:28 PM 22.2117 -72.2703 303° West 447 514 43,000  Level Miami Center
Sat 01:31:28 PM 22.2778 -72.3847 302° West 447 514 43,000  Level Miami Center
Sat 01:32:28 PM 22.3497 -72.4967 305° West 447 514 43,000  Level Miami Center
Sat 01:33:28 PM 22.4178 -72.6089 303° West 447 514 43,000  Level Miami Center
Sat 01:34:28 PM 22.4856 -72.7211 303° West 447 514 43,000  Level Miami Center
Sat 01:35:28 PM 22.5556 -72.8381 303° West 452 520 43,000  Level Miami Center
Sat 01:36:28 PM 22.6253 -72.9506 304° West 452 520 43,000  Level Miami Center
Sat 01:37:28 PM 22.6931 -73.0678 302° West 452 520 43,000  Level Miami Center
Sat 01:38:28 PM 22.7711 -73.1894 305° West 446 513 43,000  Level Miami Center
Sat 01:39:28 PM 22.8408 -73.3069 303° West 451 519 43,000  Level Miami Center
Sat 01:40:28 PM 22.9103 -73.4222 303° West 456 525 43,000  Level Miami Center
Sat 01:41:28 PM 22.9797 -73.5400 303° West 456 525 43,000  Level Miami Center
Sat 01:42:28 PM 23.0492 -73.6533 304° West 456 525 43,000  Level Miami Center
Sat 01:43:28 PM 23.1164 -73.7711 302° West 456 525 43,000  Level Miami Center
Sat 01:44:28 PM 23.1856 -73.8894 302° West 456 525 43,000  Level Miami Center
Sat 01:45:28 PM 23.2567 -74.0075 303° West 461 531 43,000  Level Miami Center
Sat 01:46:28 PM 23.3236 -74.1236 302° West 461 531 43,000  Level Miami Center
Sat 01:47:28 PM 23.3969 -74.2419 304° West 467 537 43,000  Level Miami Center
Sat 01:48:28 PM 23.4636 -74.3583 302° West 467 537 43,000  Level Miami Center
Sat 01:49:28 PM 23.5344 -74.4772 303° West 467 537 43,000  Level Miami Center
Sat 01:50:28 PM 23.6011 -74.5939 302° West 462 532 43,000  Level Miami Center
Sat 01:51:28 PM 23.6717 -74.7128 303° West 468 539 43,000  Level Miami Center
Sat 01:52:28 PM 23.7403 -74.8319 302° West 468 539 43,000  Level Miami Center
Sat 01:53:28 PM 23.8108 -74.9511 303° West 468 539 43,000  Level Miami Center
Sat 01:54:28 PM 23.8814 -75.0681 303° West 468 539 43,000  Level Miami Center
Sat 01:55:28 PM 23.9494 -75.1900 301° West 468 539 43,000  Level Miami Center
Sat 01:56:28 PM 24.0197 -75.3119 302° West 468 539 43,000  Level Miami Center
Sat 01:57:28 PM 24.0878 -75.4294 302° West 468 539 43,000  Level Miami Center
Sat 01:58:28 PM 24.1558 -75.5517 301° West 468 539 43,000  Level Miami Center
Sat 01:59:28 PM 24.2258 -75.6694 303° West 468 539 43,000  Level Miami Center
Sat 02:00:28 PM 24.2917 -75.7894 301° West 468 539 43,000  Level Miami Center
Sat 02:01:28 PM 24.3592 -75.9122 301° West 468 539 43,000  Level Miami Center
Sat 02:02:28 PM 24.4289 -76.0303 303° West 463 533 43,000  Level Miami Center
Sat 02:03:28 PM 24.4944 -76.1508 301° West 463 533 43,000  Level Miami Center
Sat 02:04:28 PM 24.5639 -76.2739 302° West 463 533 43,000  Level Miami Center
Sat 02:05:28 PM 24.6247 -76.3742 304° West 463 533 43,000  Level Miami Center
Sat 02:06:28 PM 24.6922 -76.4997 301° West 463 533 43,000  Level Miami Center
Sat 02:07:28 PM 24.7592 -76.6186 302° West 463 533 43,000 -200 Level Miami Center
Sat 02:08:28 PM 24.8283 -76.7397 302° West 463 533 42,600 -1,500 Descending Miami Center
Sat 02:09:28 PM 24.8975 -76.8658 301° West 468 539 40,000 -2,550 Descending Miami Center
Sat 02:10:28 PM 24.9664 -76.9872 302° West 468 539 37,500 -2,500 Descending Miami Center
Sat 02:11:28 PM 25.0350 -77.1089 302° West 468 539 35,000 -2,500 Descending Miami Center
Sat 02:12:28 PM 25.1039 -77.2328 302° West 468 539 32,500 -2,550 Descending Miami Center
Sat 02:13:28 PM 25.1767 -77.3617 302° West 480 552 29,900 -2,250 Descending Miami Center
Sat 02:14:28 PM 25.2492 -77.4953 301° West 499 574 28,000 -950 Descending Miami Center
Sat 02:15:28 PM 25.3156 -77.6219 300° West 492 566 28,000  Level Miami Center
Sat 02:16:28 PM 25.3839 -77.7467 301° West 486 559 28,000  Level Miami Center
Sat 02:17:28 PM 25.4539 -77.8739 301° West 486 559 28,000 -650 Level Miami Center
Sat 02:18:28 PM 25.5178 -77.9986 300° West 481 554 26,700 -1,200 Descending Miami Center
Sat 02:19:28 PM 25.5919 -78.1308 302° West 470 541 25,600 -1,050 Descending Miami Center
Sat 02:20:28 PM 25.6558 -78.2511 301° West 463 533 24,600 -1,000 Descending Miami Center
Sat 02:21:28 PM 25.7236 -78.3719 302° West 463 533 23,600 -1,000 Descending Miami Center
Sat 02:22:28 PM 25.7892 -78.4881 302° West 457 526 22,600 -1,000 Descending Miami Center
Sat 02:23:28 PM 25.8525 -78.6092 300° West 452 520 21,600 -1,000 Descending Miami Center
Sat 02:24:28 PM 25.9117 -78.7278 299° West 447 514 20,600 -800 Descending Miami Center
Sat 02:25:28 PM 25.9750 -78.8419 302° West 442 509 20,000 -350 Descending Miami Center
Sat 02:26:28 PM 26.0444 -78.9564 304° West 442 509 19,900 -1,150 Descending Miami Center
Sat 02:27:28 PM 26.1097 -79.0664 303° West 437 503 17,700 -2,900 Descending Miami Center
Sat 02:28:28 PM 26.1644 -79.1692 301° West 413 475 14,100 -3,200 Descending Miami Center
Sat 02:29:28 PM 26.2131 -79.2675 299° West 392 451 11,300 -2,650 Descending Miami Center
Sat 02:30:28 PM 26.2594 -79.3564 300° West 367 422 8,800 -2,300 Descending Miami Center
Sat 02:31:28 PM 26.3083 -79.4361 304° West 328 377 6,700 -1,850 Descending Miami Center
Sat 02:32:28 PM 26.3508 -79.5067 304° West 304 350 5,100 -850 Descending Miami Center
Sat 02:33:28 PM 26.3994 -79.5914 303° West 304 350 5,000 -150 Descending Miami Center
Sat 02:34:28 PM 26.4419 -79.6642 303° West 304 350 4,800 -500 Descending Miami Center
Sat 02:35:28 PM 26.4903 -79.7514 302° West 304 350 4,000 -400 Descending Miami Center
Sat 02:36:28 PM 26.5158 -79.8378 288° West 297 342 4,000  Level Miami Center
Sat 02:37:28 PM 26.5347 -79.9289 283° West 292 336 4,000  Level Miami Center
Sat 02:38:28 PM 26.5517 -80.0153 282° West 298 343 4,000  Level Miami Center
Sat 02:39:28 PM 26.5686 -80.1039 282° West 293 337 4,000 -200 Level Miami Center
Sat 02:40:28 PM 26.5833 -80.1878 281° West 293 337 3,600 -750 Descending Miami Center
Sat 02:41:28 PM 26.6303 -80.2403 315° West 251 289 2,500 -1,100 Descending Miami Center
Sat 02:43:00 PM 26.6832 -80.0956 68° East  Level Estimated
Sat 02:50:00 PM 26.6832 -80.0956 222° Southwest  Level Estimated
Sat 02:51:00 PM 26.6832 -80.0956 222° Southwest  Level Estimated
Sat 02:52:00 PM 26.6832 -80.0956 222° Southwest  Level Estimated
Sat 02:53:00 PM 26.6832 -80.0956 222° Southwest  Level Estimated

Login

Don't have an account? Register now (free) for customized features, flight alerts, and more!